createdAt,value
2022-11-22T00:00:18.282Z,-1.96
2022-11-22T00:02:45.174Z,-1.83
2022-11-22T00:05:12.543Z,-1.90
2022-11-22T00:07:39.507Z,-1.89
2022-11-22T00:10:07.694Z,-1.95
2022-11-22T00:12:34.583Z,-1.96
2022-11-22T00:15:01.326Z,-1.96
2022-11-22T00:17:28.042Z,-1.90
2022-11-22T00:19:54.552Z,-1.84
2022-11-22T00:22:21.003Z,-1.75
2022-11-22T00:24:47.574Z,-1.75
2022-11-22T00:27:14.084Z,-1.75
2022-11-22T00:29:40.639Z,-1.82
2022-11-22T00:32:07.072Z,-1.74
2022-11-22T00:34:33.553Z,-1.75
2022-11-22T00:37:00.087Z,-1.85
2022-11-22T00:39:26.912Z,-1.91
2022-11-22T00:41:53.853Z,-1.90
2022-11-22T00:44:20.373Z,-1.84
2022-11-22T00:46:46.917Z,-1.80
2022-11-22T00:49:13.462Z,-1.78
2022-11-22T00:51:40.440Z,-1.85
2022-11-22T00:54:07.407Z,-1.75
2022-11-22T00:56:33.958Z,-1.78
2022-11-22T00:59:00.538Z,-1.80
2022-11-22T01:01:27.174Z,-1.79
2022-11-22T01:03:53.866Z,-1.74
2022-11-22T01:06:20.496Z,-1.75
2022-11-22T01:08:47.073Z,-1.73
2022-11-22T01:11:16.459Z,-1.76
2022-11-22T01:13:42.979Z,-1.78
2022-11-22T01:16:11.040Z,-1.77
2022-11-22T01:18:37.883Z,-1.73
2022-11-22T01:21:04.748Z,-1.72
2022-11-22T01:23:31.445Z,-1.74
2022-11-22T01:25:58.006Z,-1.78
2022-11-22T01:28:24.517Z,-1.87
2022-11-22T01:30:52.348Z,-1.87
2022-11-22T01:33:19.750Z,-1.93
2022-11-22T01:35:46.428Z,-1.96
2022-11-22T01:38:12.894Z,-1.86
2022-11-22T01:40:39.453Z,-1.87
2022-11-22T01:43:16.226Z,-1.89
2022-11-22T01:45:48.799Z,-1.86
2022-11-22T01:48:34.317Z,-1.89
2022-11-22T01:51:18.364Z,-2.01
2022-11-22T01:53:45.348Z,-2.05
2022-11-22T01:56:16.488Z,-2.02
2022-11-22T01:58:47.566Z,-2.17
2022-11-22T02:01:14.223Z,-2.19
2022-11-22T02:03:46.622Z,-2.31
2022-11-22T02:06:14.151Z,-2.26
2022-11-22T02:08:49.584Z,-2.32
2022-11-22T02:11:18.345Z,-2.40
2022-11-22T02:13:45.617Z,-2.43
2022-11-22T02:16:12.480Z,-2.41
2022-11-22T02:18:39.048Z,-2.26
2022-11-22T02:21:06.332Z,-2.27
2022-11-22T02:23:55.153Z,-2.47
2022-11-22T02:26:26.702Z,-2.47
2022-11-22T02:28:55.651Z,-2.46
2022-11-22T02:31:43.609Z,-2.35
2022-11-22T02:34:11.630Z,-2.35
2022-11-22T02:36:51.272Z,-2.28
2022-11-22T02:39:21.792Z,-2.20
2022-11-22T02:41:49.638Z,-2.12
2022-11-22T02:44:16.646Z,-2.17
2022-11-22T02:46:51.870Z,-2.18
2022-11-22T02:49:21.210Z,-2.16
2022-11-22T02:51:48.518Z,-2.19
2022-11-22T02:54:15.411Z,-2.05
2022-11-22T02:56:42.804Z,-2.03
2022-11-22T02:59:10.077Z,-1.94
2022-11-22T03:01:37.055Z,-1.87
2022-11-22T03:04:03.711Z,-1.79
2022-11-22T03:06:30.411Z,-1.74
2022-11-22T03:08:57.329Z,-1.62
2022-11-22T03:11:24.612Z,-1.56
2022-11-22T03:13:51.600Z,-1.46
2022-11-22T03:16:18.086Z,-1.40
2022-11-22T03:18:44.591Z,-1.42
2022-11-22T03:21:11.209Z,-1.37
2022-11-22T03:23:38.065Z,-1.26
2022-11-22T03:26:11.633Z,-1.22
2022-11-22T03:28:38.318Z,-1.16
2022-11-22T03:31:06.625Z,-1.12
2022-11-22T03:33:34.252Z,-0.99
2022-11-22T03:36:00.803Z,-1.02
2022-11-22T03:38:27.321Z,-1.03
2022-11-22T03:40:53.863Z,-1.01
2022-11-22T03:43:21.080Z,-0.99
2022-11-22T03:45:47.994Z,-0.93
2022-11-22T03:48:14.630Z,-0.92
2022-11-22T03:50:41.390Z,-0.88
2022-11-22T03:53:08.275Z,-0.88
2022-11-22T03:55:34.803Z,-0.85
2022-11-22T03:58:01.338Z,-0.91
2022-11-22T04:00:28.172Z,-0.87
2022-11-22T04:02:54.734Z,-0.77
2022-11-22T04:05:21.283Z,-0.71
2022-11-22T04:07:48.878Z,-0.73
2022-11-22T04:10:19.388Z,-0.69
2022-11-22T04:12:48.689Z,-0.69
2022-11-22T04:15:15.156Z,-0.70
2022-11-22T04:17:48.084Z,-0.74
2022-11-22T04:20:48.530Z,-0.71
2022-11-22T04:23:17.530Z,-0.72
2022-11-22T04:25:49.077Z,-0.71
2022-11-22T04:28:17.790Z,-0.72
2022-11-22T04:31:03.424Z,-0.72
2022-11-22T04:33:29.978Z,-0.64
2022-11-22T04:35:56.751Z,-0.71
2022-11-22T04:38:23.558Z,-0.67
2022-11-22T04:40:50.031Z,-0.60
2022-11-22T04:43:40.448Z,-0.58
2022-11-22T04:46:07.151Z,-0.61
2022-11-22T04:48:33.927Z,-0.61
2022-11-22T04:51:18.986Z,-0.57
2022-11-22T04:53:45.677Z,-0.58
2022-11-22T04:56:12.644Z,-0.48
2022-11-22T04:58:39.190Z,-0.58
2022-11-22T05:01:06.474Z,-0.50
2022-11-22T05:03:33.441Z,-0.44
2022-11-22T05:06:04.731Z,-0.39
2022-11-22T05:08:31.703Z,-0.38
2022-11-22T05:10:58.498Z,-0.33
2022-11-22T05:13:31.156Z,-0.28
2022-11-22T05:15:59.233Z,-0.24
2022-11-22T05:18:27.176Z,-0.18
2022-11-22T05:20:54.227Z,-0.10
2022-11-22T05:23:40.266Z,-0.01
2022-11-22T05:26:07.457Z,-0.08
2022-11-22T05:28:36.232Z,-0.06
2022-11-22T05:31:14.105Z,-0.07
2022-11-22T05:33:44.183Z,-0.06
2022-11-22T05:36:10.962Z,-0.01
2022-11-22T05:38:38.473Z,0.01
2022-11-22T05:41:12.100Z,0.03
2022-11-22T05:43:40.008Z,0.09
2022-11-22T05:46:27.626Z,0.14
2022-11-22T05:48:58.828Z,0.09
2022-11-22T05:51:34.073Z,0.13
2022-11-22T05:54:02.012Z,0.20
2022-11-22T05:56:28.547Z,0.18
2022-11-22T05:58:55.327Z,0.21
2022-11-22T06:01:24.228Z,0.19
2022-11-22T06:03:51.664Z,0.14
2022-11-22T06:06:21.727Z,0.05
2022-11-22T06:08:48.617Z,0.12
2022-11-22T06:11:17.500Z,0.16
2022-11-22T06:13:45.831Z,0.17
2022-11-22T06:16:13.136Z,0.20
2022-11-22T06:18:39.948Z,0.21
2022-11-22T06:21:10.317Z,0.26
2022-11-22T06:23:36.833Z,0.25
2022-11-22T06:26:08.827Z,0.28
2022-11-22T06:28:37.015Z,0.21
2022-11-22T06:31:12.321Z,0.22
2022-11-22T06:33:40.049Z,0.19
2022-11-22T06:36:07.944Z,0.19
2022-11-22T06:38:35.214Z,0.56
2022-11-22T06:41:03.381Z,1.95
2022-11-22T06:43:57.381Z,1.83
2022-11-22T06:46:31.775Z,1.27
2022-11-22T06:48:59.819Z,1.09
2022-11-22T06:51:29.892Z,0.97
2022-11-22T06:53:57.953Z,0.87
2022-11-22T06:56:27.728Z,0.85
2022-11-22T06:58:54.855Z,0.79
2022-11-22T07:01:26.772Z,0.73
2022-11-22T07:03:58.533Z,0.74
2022-11-22T07:06:27.889Z,0.79
2022-11-22T07:08:54.815Z,0.87
2022-11-22T07:14:34.478Z,0.97
2022-11-22T07:24:43.625Z,0.97
2022-11-22T07:27:10.118Z,1.05
2022-11-22T07:40:53.739Z,1.14
2022-11-22T07:54:50.656Z,1.22
2022-11-22T08:01:58.784Z,1.38
2022-11-22T08:04:25.282Z,1.46
2022-11-22T08:07:06.119Z,1.49
2022-11-22T08:09:32.779Z,1.67
2022-11-22T08:12:29.002Z,1.72
2022-11-22T08:18:32.480Z,2.06
2022-11-22T08:25:09.789Z,1.97
2022-11-22T08:27:36.285Z,1.97
2022-11-22T08:34:02.103Z,1.93
2022-11-22T08:36:29.111Z,2.03
2022-11-22T08:42:43.201Z,1.95
2022-11-22T08:46:06.409Z,1.90
2022-11-22T08:48:35.252Z,1.99
2022-11-22T08:51:07.911Z,1.91
2022-11-22T08:53:36.932Z,1.99
2022-11-22T08:56:05.739Z,1.98
2022-11-22T08:58:33.661Z,2.06
2022-11-22T09:01:14.643Z,1.95
2022-11-22T09:03:41.928Z,1.88
2022-11-22T09:09:22.079Z,2.07
2022-11-22T09:11:44.125Z,2.06
2022-11-22T09:14:10.616Z,2.05
2022-11-22T09:16:37.095Z,1.99
2022-11-22T09:19:03.605Z,1.99
2022-11-22T09:21:30.163Z,2.21
2022-11-22T09:23:56.719Z,2.32
2022-11-22T09:26:25.220Z,2.32
2022-11-22T09:28:53.257Z,2.39
2022-11-22T09:31:21.586Z,2.45
2022-11-22T09:33:49.480Z,2.51
2022-11-22T09:36:18.792Z,2.58
2022-11-22T09:38:45.925Z,2.62
2022-11-22T09:41:43.299Z,2.49
2022-11-22T09:44:30.457Z,2.49
2022-11-22T09:47:05.150Z,2.61
2022-11-22T09:49:55.732Z,2.83
2022-11-22T09:52:32.183Z,2.85
2022-11-22T09:55:11.668Z,2.88
2022-11-22T09:57:44.385Z,2.87
2022-11-22T10:00:31.333Z,3.03
2022-11-22T10:03:12.710Z,3.08
2022-11-22T10:05:50.221Z,3.05
2022-11-22T10:08:25.461Z,3.09
2022-11-22T10:10:54.487Z,3.09
2022-11-22T10:13:31.577Z,3.02
2022-11-22T10:16:14.125Z,2.95
2022-11-22T10:18:45.881Z,2.93
2022-11-22T10:21:13.824Z,2.93
2022-11-22T10:23:44.937Z,2.81
2022-11-22T10:26:38.686Z,2.89
2022-11-22T10:29:32.070Z,3.02
2022-11-22T10:32:17.551Z,2.88
2022-11-22T10:35:29.340Z,2.98
2022-11-22T10:38:20.866Z,3.02
2022-11-22T10:41:16.296Z,3.04
2022-11-22T10:44:04.258Z,3.02
2022-11-22T10:46:56.978Z,2.91
2022-11-22T10:49:49.857Z,2.97
2022-11-22T10:52:27.207Z,3.13
2022-11-22T10:55:22.151Z,3.18
2022-11-22T10:58:05.999Z,3.29
2022-11-22T11:00:38.169Z,3.28
2022-11-22T11:03:23.909Z,3.12
2022-11-22T11:06:22.778Z,3.27
2022-11-22T11:10:02.906Z,3.39
2022-11-22T11:11:45.922Z,3.17
2022-11-22T11:14:29.818Z,3.15
2022-11-22T11:16:57.008Z,3.17
2022-11-22T11:19:25.474Z,3.38
2022-11-22T11:22:00.946Z,3.39
2022-11-22T11:24:31.004Z,3.39
2022-11-22T11:27:00.341Z,3.32
2022-11-22T11:29:48.593Z,3.35
2022-11-22T11:32:19.883Z,3.42
2022-11-22T11:35:00.487Z,3.43
2022-11-22T11:37:33.653Z,3.50
2022-11-22T11:40:00.252Z,3.50
2022-11-22T11:42:34.854Z,3.38
2022-11-22T11:45:26.833Z,3.37
2022-11-22T11:47:53.395Z,3.43
2022-11-22T11:50:24.590Z,3.50
2022-11-22T11:53:05.591Z,3.54
2022-11-22T11:55:35.083Z,3.66
2022-11-22T11:58:16.166Z,3.79
2022-11-22T12:00:44.179Z,4.03
2022-11-22T12:03:15.457Z,4.17
2022-11-22T12:05:41.960Z,4.27
2022-11-22T12:08:37.805Z,4.37
2022-11-22T12:11:13.749Z,4.41
2022-11-22T12:14:12.369Z,4.37
2022-11-22T12:16:36.485Z,4.39
2022-11-22T12:19:28.430Z,4.44
2022-11-22T12:22:01.769Z,4.40
2022-11-22T12:25:16.945Z,4.39
2022-11-22T12:27:41.820Z,4.36
2022-11-22T12:30:12.655Z,4.30
2022-11-22T12:32:49.976Z,4.33
2022-11-22T12:35:23.644Z,4.38
2022-11-22T12:38:11.377Z,4.49
2022-11-22T12:40:47.993Z,4.64
2022-11-22T12:43:23.694Z,4.87
2022-11-22T12:45:53.846Z,5.04
2022-11-22T12:48:48.876Z,5.06
2022-11-22T12:51:53.757Z,5.16
2022-11-22T12:54:37.357Z,5.21
2022-11-22T12:57:15.674Z,5.26
2022-11-22T12:59:53.374Z,5.29
2022-11-22T13:02:42.553Z,5.34
2022-11-22T13:05:20.323Z,5.45
2022-11-22T13:08:01.994Z,5.48
2022-11-22T13:10:36.113Z,5.40
2022-11-22T13:13:04.642Z,5.33
2022-11-22T13:15:34.533Z,5.25
2022-11-22T13:18:01.225Z,5.19
2022-11-22T13:20:41.403Z,5.70
2022-11-22T13:23:15.809Z,5.59
2022-11-22T13:26:27.968Z,5.48
2022-11-22T13:28:55.397Z,5.28
2022-11-22T13:31:21.996Z,5.22
2022-11-22T13:34:00.125Z,5.24
2022-11-22T13:36:29.597Z,5.31
2022-11-22T13:38:58.512Z,5.26
2022-11-22T13:41:48.194Z,5.21
2022-11-22T13:44:20.577Z,5.23
2022-11-22T13:46:47.017Z,5.28
2022-11-22T13:49:32.447Z,5.25
2022-11-22T13:52:26.575Z,5.28
2022-11-22T13:54:53.177Z,5.14
2022-11-22T13:57:41.603Z,5.06
2022-11-22T14:00:13.994Z,5.02
2022-11-22T14:02:51.479Z,5.10
2022-11-22T14:05:17.905Z,4.96
2022-11-22T14:07:45.716Z,4.92
2022-11-22T14:10:37.070Z,4.89
2022-11-22T14:13:08.817Z,4.84
2022-11-22T14:15:54.096Z,4.81
2022-11-22T14:18:40.717Z,4.81
2022-11-22T14:21:14.402Z,4.80
2022-11-22T14:23:58.882Z,4.81
2022-11-22T14:27:10.265Z,4.82
2022-11-22T14:29:42.624Z,4.79
2022-11-22T14:32:20.501Z,4.73
2022-11-22T14:35:05.006Z,4.73
2022-11-22T14:37:34.733Z,4.69
2022-11-22T14:40:01.231Z,4.63
2022-11-22T14:42:37.586Z,4.61
2022-11-22T14:45:12.816Z,4.59
2022-11-22T14:47:46.978Z,4.59
2022-11-22T14:50:25.629Z,4.52
2022-11-22T14:52:56.578Z,4.43
2022-11-22T14:55:34.084Z,4.38
2022-11-22T14:58:11.686Z,4.36
2022-11-22T15:01:29.593Z,4.31
2022-11-22T15:09:18.393Z,4.27
2022-11-22T15:09:20.276Z,4.33
2022-11-22T15:10:06.293Z,4.21
2022-11-22T15:12:41.668Z,4.16
2022-11-22T15:57:36.665Z,3.70
2022-11-22T16:00:10.843Z,3.73
2022-11-22T16:02:47.315Z,3.75
2022-11-22T16:06:05.339Z,3.72
2022-11-22T16:08:05.336Z,3.72
2022-11-22T16:10:42.585Z,3.66
2022-11-22T16:13:21.048Z,3.67
2022-11-22T16:16:07.843Z,3.62
2022-11-22T16:18:34.572Z,3.67
2022-11-22T16:21:27.540Z,3.66
2022-11-22T16:24:18.978Z,3.63
2022-11-22T16:26:56.266Z,3.61
2022-11-22T16:29:32.356Z,3.62
2022-11-22T16:32:06.655Z,3.60
2022-11-22T16:34:33.260Z,3.56
2022-11-22T16:36:59.782Z,3.58
2022-11-22T16:39:26.333Z,3.52
2022-11-22T16:41:52.847Z,3.52
2022-11-22T16:44:20.855Z,3.48
2022-11-22T16:46:47.668Z,3.44
2022-11-22T16:49:22.498Z,3.42
2022-11-22T16:51:51.053Z,3.44
2022-11-22T16:54:20.118Z,3.41
2022-11-22T16:56:47.022Z,3.39
2022-11-22T16:59:13.918Z,3.38
2022-11-22T17:01:42.631Z,3.35
2022-11-22T17:04:29.419Z,3.35
2022-11-22T17:06:55.968Z,3.40
2022-11-22T17:09:22.617Z,3.40
2022-11-22T17:11:49.558Z,3.37
2022-11-22T17:14:17.942Z,3.38
2022-11-22T17:16:48.049Z,3.36
2022-11-22T17:19:37.612Z,3.37
2022-11-22T17:22:01.034Z,3.37
2022-11-22T17:24:27.851Z,3.38
2022-11-22T17:26:54.556Z,3.40
2022-11-22T17:32:13.154Z,3.41
2022-11-22T17:34:39.762Z,3.37
2022-11-22T17:37:13.895Z,3.37
2022-11-22T17:39:43.001Z,3.41
2022-11-22T17:42:09.599Z,3.41
2022-11-22T17:44:36.123Z,3.40
2022-11-22T17:47:02.930Z,3.44
2022-11-22T17:49:30.053Z,3.45
2022-11-22T17:51:56.864Z,3.41
2022-11-22T17:54:23.394Z,3.40
2022-11-22T17:56:49.986Z,3.34
2022-11-22T17:59:16.471Z,3.31
2022-11-22T18:01:43.387Z,3.29
2022-11-22T18:04:10.806Z,3.27
2022-11-22T18:06:38.025Z,3.27
2022-11-22T18:09:04.739Z,3.26
2022-11-22T18:11:31.619Z,3.35
2022-11-22T18:13:58.625Z,3.33
2022-11-22T18:16:31.610Z,3.37
2022-11-22T18:19:01.814Z,3.36
2022-11-22T18:22:23.416Z,3.42
2022-11-22T18:29:41.686Z,3.21
2022-11-22T18:36:53.471Z,3.20
2022-11-22T18:39:20.596Z,3.16
2022-11-22T18:42:14.291Z,3.17
2022-11-22T18:44:40.935Z,3.12
2022-11-22T18:47:08.199Z,3.16
2022-11-22T18:49:35.221Z,3.16
2022-11-22T18:52:04.915Z,3.16
2022-11-22T18:54:31.924Z,3.09
2022-11-22T18:56:58.675Z,3.02
2022-11-22T18:59:25.454Z,2.98
2022-11-22T19:01:51.979Z,2.94
2022-11-22T19:04:18.683Z,2.94
2022-11-22T19:06:45.901Z,2.88
2022-11-22T19:09:12.756Z,2.85
2022-11-22T19:11:39.454Z,2.78
2022-11-22T19:26:01.508Z,2.66
2022-11-22T19:28:28.601Z,2.63
2022-11-22T19:31:00.906Z,2.58
2022-11-22T19:33:27.716Z,2.53
2022-11-22T19:39:58.496Z,2.54
2022-11-22T19:42:27.245Z,2.61
2022-11-22T19:48:35.893Z,2.60
2022-11-22T19:55:03.765Z,2.75
2022-11-22T20:02:29.343Z,2.77
2022-11-22T20:04:56.894Z,2.76
2022-11-22T20:11:13.466Z,2.72
2022-11-22T20:13:42.804Z,2.73
2022-11-22T20:23:12.790Z,2.64
2022-11-22T20:25:40.638Z,2.63
2022-11-22T20:32:00.457Z,2.60
2022-11-22T20:34:29.713Z,2.60
2022-11-22T20:40:48.473Z,2.60
2022-11-22T20:43:14.993Z,2.70
2022-11-22T20:49:30.776Z,2.74
2022-11-22T20:51:57.633Z,2.71
2022-11-22T21:06:18.754Z,2.74
2022-11-22T21:08:48.158Z,2.72
2022-11-22T21:15:36.544Z,2.73
2022-11-22T21:18:23.998Z,2.76
2022-11-22T21:20:51.491Z,2.75
2022-11-22T21:27:04.619Z,2.74
2022-11-22T21:29:31.383Z,2.79
2022-11-22T21:40:00.465Z,2.81
2022-11-22T21:51:04.909Z,2.74
2022-11-22T21:57:31.264Z,2.67
2022-11-22T21:59:58.347Z,2.65
2022-11-22T22:18:18.033Z,2.62
2022-11-22T22:26:09.650Z,2.64
2022-11-22T22:38:17.882Z,2.77
2022-11-22T22:52:14.830Z,2.79
2022-11-22T23:08:40.332Z,2.97
2022-11-22T23:11:12.439Z,2.92
2022-11-22T23:17:22.483Z,2.96
2022-11-22T23:22:56.185Z,3.01
2022-11-22T23:34:36.850Z,2.89
2022-11-22T23:37:05.940Z,2.88
2022-11-22T23:43:40.405Z,2.78
2022-11-22T23:46:25.598Z,2.81
2022-11-22T23:56:36.408Z,2.74
